createdAt,value
2018-11-21T00:00:12.043Z,6.67
2018-11-21T00:02:40.818Z,6.03
2018-11-21T00:05:09.599Z,6.40
2018-11-21T00:07:38.444Z,6.55
2018-11-21T00:10:11.785Z,6.92
2018-11-21T00:12:42.005Z,6.75
2018-11-21T00:15:11.873Z,6.72
2018-11-21T00:17:40.563Z,6.20
2018-11-21T00:20:10.524Z,5.70
2018-11-21T00:22:39.543Z,5.58
2018-11-21T00:25:08.338Z,5.80
2018-11-21T00:27:37.038Z,5.20
2018-11-21T00:30:08.763Z,5.17
2018-11-21T00:32:37.661Z,4.60
2018-11-21T00:35:08.133Z,4.53
2018-11-21T00:37:36.833Z,4.45
2018-11-21T00:40:08.723Z,4.75
2018-11-21T00:42:38.131Z,4.20
2018-11-21T00:45:07.546Z,4.30
2018-11-21T00:47:36.270Z,4.15
2018-11-21T00:50:05.449Z,4.42
2018-11-21T00:52:34.180Z,4.33
2018-11-21T00:55:03.253Z,4.60
2018-11-21T00:57:32.154Z,4.80
2018-11-21T01:00:00.922Z,4.65
2018-11-21T01:02:29.666Z,4.65
2018-11-21T01:04:58.506Z,4.58
2018-11-21T01:07:27.225Z,4.80
2018-11-21T01:09:55.964Z,5.00
2018-11-21T01:12:24.748Z,4.87
2018-11-21T01:14:53.495Z,4.92
2018-11-21T01:17:22.259Z,4.72
2018-11-21T01:19:51.049Z,5.35
2018-11-21T01:22:19.799Z,4.92
2018-11-21T01:24:48.559Z,4.87
2018-11-21T01:27:17.279Z,5.00
2018-11-21T01:29:46.153Z,5.17
2018-11-21T01:32:14.957Z,5.58
2018-11-21T01:34:43.658Z,5.45
2018-11-21T01:37:12.473Z,5.22
2018-11-21T01:39:41.263Z,5.60
2018-11-21T01:42:09.998Z,5.20
2018-11-21T01:44:38.683Z,5.30
2018-11-21T01:47:07.507Z,5.20
2018-11-21T01:49:36.209Z,5.42
2018-11-21T01:52:05.210Z,5.22
2018-11-21T01:54:33.938Z,4.97
2018-11-21T01:57:02.649Z,5.03
2018-11-21T01:59:31.404Z,4.92
2018-11-21T02:02:00.323Z,4.53
2018-11-21T02:04:29.021Z,4.10
2018-11-21T02:06:58.047Z,3.92
2018-11-21T02:09:26.844Z,3.55
2018-11-21T02:11:55.722Z,3.40
2018-11-21T02:14:24.539Z,2.87
2018-11-21T02:16:53.309Z,2.95
2018-11-21T02:19:22.032Z,2.83
2018-11-21T02:21:50.799Z,2.60
2018-11-21T02:24:19.533Z,3.02
2018-11-21T02:26:48.287Z,2.70
2018-11-21T02:29:17.244Z,3.05
2018-11-21T02:31:45.975Z,2.60
2018-11-21T02:34:14.723Z,3.20
2018-11-21T02:36:43.486Z,3.10
2018-11-21T02:39:12.545Z,3.25
2018-11-21T02:41:41.330Z,3.35
2018-11-21T02:44:10.088Z,3.12
2018-11-21T02:46:38.804Z,3.35
2018-11-21T02:49:07.734Z,3.17
2018-11-21T02:51:36.442Z,3.02
2018-11-21T02:54:05.342Z,3.30
2018-11-21T02:57:10.329Z,2.90
2018-11-21T02:59:39.239Z,3.17
2018-11-21T03:02:08.029Z,3.35
2018-11-21T03:04:36.838Z,3.60
2018-11-21T03:07:05.802Z,3.62
2018-11-21T03:09:34.879Z,3.40
2018-11-21T03:12:03.772Z,3.50
2018-11-21T03:14:32.575Z,3.85
2018-11-21T03:17:01.435Z,3.90
2018-11-21T03:19:30.188Z,3.70
2018-11-21T03:21:59.092Z,3.70
2018-11-21T03:24:27.940Z,3.60
2018-11-21T03:26:56.723Z,3.60
2018-11-21T03:29:25.714Z,3.80
2018-11-21T03:31:54.549Z,3.95
2018-11-21T03:34:23.369Z,3.98
2018-11-21T03:36:53.477Z,4.22
2018-11-21T03:39:23.295Z,4.08
2018-11-21T03:41:52.033Z,4.78
2018-11-21T03:44:20.745Z,4.22
2018-11-21T03:46:49.771Z,4.67
2018-11-21T03:49:18.512Z,4.45
2018-11-21T03:51:47.246Z,4.47
2018-11-21T03:54:15.959Z,4.72
2018-11-21T03:56:44.613Z,4.50
2018-11-21T03:59:13.308Z,4.90
2018-11-21T04:01:42.114Z,5.83
2018-11-21T04:04:10.909Z,5.62
2018-11-21T04:06:39.613Z,4.92
2018-11-21T04:09:10.202Z,5.30
2018-11-21T04:11:38.957Z,4.90
2018-11-21T04:14:08.130Z,4.80
2018-11-21T04:16:36.887Z,4.97
2018-11-21T04:19:05.669Z,4.83
2018-11-21T04:21:34.454Z,4.78
2018-11-21T04:24:03.312Z,4.90
2018-11-21T04:26:32.024Z,4.90
2018-11-21T04:29:00.752Z,5.50
2018-11-21T04:31:29.460Z,5.03
2018-11-21T04:33:58.343Z,6.22
2018-11-21T04:36:27.025Z,6.12
2018-11-21T04:38:55.810Z,6.20
2018-11-21T04:41:24.553Z,6.70
2018-11-21T04:43:53.288Z,7.72
2018-11-21T04:46:22.027Z,6.70
2018-11-21T04:48:50.754Z,7.70
2018-11-21T04:51:19.574Z,6.53
2018-11-21T04:53:48.379Z,6.10
2018-11-21T04:56:17.152Z,6.70
2018-11-21T04:58:45.902Z,7.55
2018-11-21T05:01:14.601Z,6.45
2018-11-21T05:03:43.393Z,6.30
2018-11-21T05:06:12.354Z,6.45
2018-11-21T05:08:41.112Z,5.55
2018-11-21T05:11:09.959Z,6.47
2018-11-21T05:13:38.699Z,5.95
2018-11-21T05:16:07.759Z,6.37
2018-11-21T05:18:36.412Z,5.97
2018-11-21T05:21:05.253Z,5.45
2018-11-21T05:23:34.067Z,5.60
2018-11-21T05:26:02.886Z,5.33
2018-11-21T05:28:31.588Z,4.83
2018-11-21T05:31:00.371Z,4.80
2018-11-21T05:33:29.078Z,4.72
2018-11-21T05:35:57.843Z,4.70
2018-11-21T05:38:26.526Z,4.70
2018-11-21T05:40:55.253Z,4.33
2018-11-21T05:43:24.116Z,3.75
2018-11-21T05:45:52.882Z,4.08
2018-11-21T05:48:21.547Z,4.20
2018-11-21T05:50:50.415Z,4.62
2018-11-21T05:53:19.302Z,5.17
2018-11-21T05:55:48.115Z,5.30
2018-11-21T05:58:16.824Z,5.25
2018-11-21T06:00:49.101Z,6.90
2018-11-21T06:03:14.467Z,6.33
2018-11-21T06:05:43.306Z,6.80
2018-11-21T06:08:12.336Z,6.83
2018-11-21T06:10:41.092Z,6.50
2018-11-21T06:13:09.954Z,6.70
2018-11-21T06:15:38.802Z,7.42
2018-11-21T06:18:07.498Z,7.90
2018-11-21T06:20:36.265Z,7.42
2018-11-21T06:23:05.062Z,8.25
2018-11-21T06:25:33.760Z,10.38
2018-11-21T06:28:02.465Z,11.95
2018-11-21T06:30:31.311Z,10.93
2018-11-21T06:33:00.004Z,10.68
2018-11-21T06:35:28.676Z,10.55
2018-11-21T06:37:57.476Z,8.33
2018-11-21T06:40:26.174Z,7.30
2018-11-21T06:42:56.360Z,7.47
2018-11-21T06:45:26.028Z,7.58
2018-11-21T06:47:54.931Z,7.50
2018-11-21T06:50:23.804Z,8.13
2018-11-21T06:52:53.404Z,8.38
2018-11-21T06:55:22.130Z,8.50
2018-11-21T06:57:50.935Z,5.20
2018-11-21T07:00:19.925Z,21.65
2018-11-21T07:02:48.621Z,7.15
2018-11-21T07:05:17.435Z,6.55
2018-11-21T07:07:46.168Z,6.85
2018-11-21T07:10:15.863Z,7.35
2018-11-21T07:12:45.430Z,6.50
2018-11-21T07:15:14.099Z,6.62
2018-11-21T07:17:42.785Z,6.92
2018-11-21T07:20:13.080Z,7.40
2018-11-21T07:22:42.312Z,6.90
2018-11-21T07:25:17.049Z,8.05
2018-11-21T07:27:45.872Z,9.00
2018-11-21T07:30:15.589Z,8.25
2018-11-21T07:32:44.405Z,9.15
2018-11-21T07:35:17.763Z,10.08
2018-11-21T07:37:42.594Z,9.95
2018-11-21T07:40:13.077Z,10.13
2018-11-21T07:42:41.882Z,9.28
2018-11-21T07:45:12.453Z,9.93
2018-11-21T07:47:41.830Z,9.40
2018-11-21T07:50:13.528Z,9.35
2018-11-21T07:52:42.501Z,8.85
2018-11-21T07:55:11.941Z,7.20
2018-11-21T07:57:42.218Z,7.20
2018-11-21T08:01:16.209Z,7.42
2018-11-21T08:03:46.897Z,8.63
2018-11-21T08:06:18.433Z,8.48
2018-11-21T08:09:24.275Z,8.93
2018-11-21T08:12:10.758Z,9.03
2018-11-21T08:15:01.445Z,11.18
2018-11-21T08:17:47.894Z,15.60
2018-11-21T08:20:27.935Z,11.70
2018-11-21T08:23:14.468Z,9.73
2018-11-21T08:25:52.530Z,8.48
2018-11-21T08:28:23.207Z,9.43
2018-11-21T08:30:52.074Z,9.75
2018-11-21T08:33:21.097Z,8.80
2018-11-21T08:35:52.105Z,8.15
2018-11-21T08:38:23.555Z,8.83
2018-11-21T08:40:52.760Z,8.05
2018-11-21T08:43:21.486Z,7.83
2018-11-21T08:45:50.161Z,7.70
2018-11-21T08:48:19.652Z,9.13
2018-11-21T08:50:48.346Z,8.93
2018-11-21T08:53:17.092Z,23.73
2018-11-21T08:55:45.780Z,28.20
2018-11-21T08:58:14.562Z,31.30
2018-11-21T09:00:43.269Z,23.47
2018-11-21T09:03:13.174Z,24.90
2018-11-21T09:05:41.875Z,18.45
2018-11-21T09:08:10.986Z,13.90
2018-11-21T09:10:39.636Z,13.68
2018-11-21T09:13:08.311Z,13.08
2018-11-21T09:15:37.157Z,12.58
2018-11-21T09:18:08.977Z,13.22
2018-11-21T09:20:37.647Z,14.63
2018-11-21T09:23:06.442Z,14.87
2018-11-21T09:25:35.155Z,12.40
2018-11-21T09:28:03.901Z,11.68
2018-11-21T09:30:32.591Z,9.80
2018-11-21T09:33:01.619Z,11.08
2018-11-21T09:35:30.666Z,10.08
2018-11-21T09:37:59.427Z,9.98
2018-11-21T09:40:28.181Z,10.68
2018-11-21T09:42:57.248Z,13.00
2018-11-21T09:45:26.299Z,11.73
2018-11-21T09:47:55.011Z,11.03
2018-11-21T09:50:28.173Z,12.68
2018-11-21T09:52:56.955Z,11.83
2018-11-21T09:55:25.675Z,11.57
2018-11-21T09:57:54.369Z,12.73
2018-11-21T10:00:59.120Z,11.05
2018-11-21T10:03:29.711Z,12.50
2018-11-21T10:06:21.900Z,14.55
2018-11-21T10:08:52.361Z,10.70
2018-11-21T10:11:21.460Z,9.13
2018-11-21T10:13:50.346Z,8.63
2018-11-21T10:16:19.167Z,7.85
2018-11-21T10:18:52.390Z,9.25
2018-11-21T10:21:22.765Z,9.95
2018-11-21T10:23:51.437Z,10.28
2018-11-21T10:26:20.221Z,8.93
2018-11-21T10:28:49.731Z,10.28
2018-11-21T10:31:18.516Z,9.98
2018-11-21T10:33:47.399Z,9.68
2018-11-21T10:36:16.157Z,10.28
2018-11-21T10:38:45.018Z,9.10
2018-11-21T10:41:13.742Z,9.63
2018-11-21T10:43:42.586Z,21.48
2018-11-21T10:46:11.288Z,12.73
2018-11-21T10:48:39.969Z,7.25
2018-11-21T10:51:08.697Z,6.03
2018-11-21T10:53:37.609Z,6.20
2018-11-21T10:56:06.722Z,7.08
2018-11-21T10:58:35.467Z,6.90
2018-11-21T11:01:21.573Z,7.17
2018-11-21T11:03:52.540Z,5.92
2018-11-21T11:06:33.083Z,5.75
2018-11-21T11:09:19.300Z,5.95
2018-11-21T11:12:05.977Z,5.17
2018-11-21T11:15:10.082Z,5.72
2018-11-21T11:18:16.185Z,8.03
2018-11-21T11:21:09.936Z,8.10
2018-11-21T11:23:56.146Z,9.35
2018-11-21T11:26:44.643Z,11.12
2018-11-21T11:29:30.986Z,11.63
2018-11-21T11:32:17.651Z,12.10
2018-11-21T11:35:08.286Z,10.32
2018-11-21T11:37:54.765Z,10.13
2018-11-21T11:40:51.622Z,9.30
2018-11-21T11:43:38.103Z,9.73
2018-11-21T11:46:19.640Z,31.73
2018-11-21T11:49:05.810Z,42.45
2018-11-21T11:51:59.743Z,10.20
2018-11-21T11:55:02.412Z,11.12
2018-11-21T11:57:58.268Z,10.95
2018-11-21T12:00:58.332Z,13.50
2018-11-21T12:04:04.375Z,14.38
2018-11-21T12:07:10.295Z,12.50
2018-11-21T12:09:56.842Z,11.75
2018-11-21T12:12:57.195Z,11.05
2018-11-21T12:15:47.995Z,11.75
2018-11-21T12:18:34.446Z,12.80
2018-11-21T12:21:22.951Z,12.28
2018-11-21T12:24:08.135Z,11.80
2018-11-21T12:26:54.721Z,16.85
2018-11-21T12:29:45.601Z,13.50
2018-11-21T12:32:42.730Z,9.80
2018-11-21T12:35:29.424Z,9.65
2018-11-21T12:38:17.283Z,8.23
2018-11-21T12:41:14.858Z,6.55
2018-11-21T12:43:53.736Z,7.60
2018-11-21T12:46:49.652Z,7.58
2018-11-21T12:49:36.155Z,7.40
2018-11-21T12:52:24.706Z,6.15
2018-11-21T12:55:15.249Z,5.70
2018-11-21T12:58:03.125Z,5.92
2018-11-21T13:00:59.848Z,6.10
2018-11-21T13:03:46.767Z,7.50
2018-11-21T13:06:34.623Z,8.80
2018-11-21T13:09:25.605Z,7.97
2018-11-21T13:12:12.086Z,9.03
2018-11-21T13:14:49.684Z,8.85
2018-11-21T13:17:40.453Z,8.03
2018-11-21T13:20:27.314Z,10.10
2018-11-21T13:23:24.561Z,14.60
